Time,TemperatureF,DewpointF,PressureIn,WindDirection,WindDirectionDegrees,WindSpeedMPH,WindSpeedGustMPH,Humidity,HourlyPrecipIn,Conditions,Clouds,dailyrainin,SoftwareType,DateUTC
2013-10-03 00:13:00,71.0,-99.9,-100.00,SSE,147,2.0,3.0,-999,0.00,,,0.00,,2013-10-03 05:13:00,
2013-10-03 00:23:00,71.0,-99.9,-100.00,SSE,147,2.0,3.0,-999,0.00,,,0.00,,2013-10-03 05:23:00,
2013-10-03 00:44:00,71.0,-99.9,-100.00,SSE,160,1.0,3.0,-999,0.00,,,0.00,,2013-10-03 05:44:00,
2013-10-03 01:12:00,71.0,-99.9,-100.00,SSE,160,2.0,3.0,-999,0.00,,,0.00,,2013-10-03 06:12:00,
2013-10-03 01:22:00,71.0,-99.9,-100.00,SSE,160,2.0,3.0,-999,0.00,,,0.00,,2013-10-03 06:22:00,
2013-10-03 01:42:00,70.0,-99.9,-100.00,SSE,162,2.0,2.0,-999,0.00,,,0.00,,2013-10-03 06:42:00,
2013-10-03 01:52:00,70.0,-99.9,-100.00,SSE,162,2.0,2.0,-999,0.00,,,0.00,,2013-10-03 06:52:00,
2013-10-03 02:12:00,70.0,-99.9,-100.00,SSE,165,2.0,2.0,-999,0.00,,,0.00,,2013-10-03 07:12:00,
2013-10-03 02:22:00,70.0,-99.9,-100.00,SSE,165,2.0,2.0,-999,0.00,,,0.00,,2013-10-03 07:22:00,
2013-10-03 02:42:00,70.0,-99.9,-100.00,SSE,157,2.0,3.0,-999,0.00,,,0.00,,2013-10-03 07:42:00,
2013-10-03 02:52:00,70.0,-99.9,-100.00,SSE,157,2.0,3.0,-999,0.00,,,0.00,,2013-10-03 07:52:00,
2013-10-03 03:12:00,70.0,-99.9,-100.00,South,172,2.0,3.0,-999,0.00,,,0.00,,2013-10-03 08:12:00,
2013-10-03 03:23:00,70.0,-99.9,-100.00,South,172,2.0,3.0,-999,0.00,,,0.00,,2013-10-03 08:23:00,
2013-10-03 03:30:00,70.0,-99.9,-100.00,SSE,157,2.0,2.0,-999,0.00,,,0.00,,2013-10-03 08:30:00,
2013-10-03 03:42:00,70.0,-99.9,-100.00,SSE,155,3.0,5.0,-999,0.00,,,0.00,,2013-10-03 08:42:00,
2013-10-03 03:52:00,70.0,-99.9,-100.00,SSE,155,3.0,5.0,-999,0.00,,,0.00,,2013-10-03 08:52:00,
2013-10-03 04:12:00,70.0,-99.9,-100.00,SSE,157,2.0,2.0,-999,0.00,,,0.00,,2013-10-03 09:12:00,
2013-10-03 04:22:00,70.0,-99.9,-100.00,SSE,157,2.0,2.0,-999,0.00,,,0.00,,2013-10-03 09:22:00,
2013-10-03 05:13:00,70.0,-99.9,-100.00,South,169,2.0,3.0,-999,0.00,,,0.00,,2013-10-03 10:13:00,
2013-10-03 05:23:00,70.0,-99.9,-100.00,South,169,2.0,3.0,-999,0.00,,,0.00,,2013-10-03 10:23:00,
2013-10-03 05:43:00,70.0,-99.9,-100.00,SSE,160,1.0,2.0,-999,0.00,,,0.00,,2013-10-03 10:43:00,
2013-10-03 05:52:00,70.0,-99.9,-100.00,SSE,160,1.0,2.0,-999,0.00,,,0.00,,2013-10-03 10:52:00,
2013-10-03 06:12:00,70.0,-99.9,-100.00,SSW,196,2.0,5.0,-999,0.00,,,0.00,,2013-10-03 11:12:00,
2013-10-03 06:23:00,70.0,-99.9,-100.00,SSW,196,2.0,5.0,-999,0.00,,,0.00,,2013-10-03 11:23:00,
2013-10-03 06:42:00,70.0,-99.9,-100.00,South,184,3.0,6.0,-999,0.00,,,0.00,,2013-10-03 11:42:00,
2013-10-03 06:52:00,70.0,-99.9,-100.00,South,184,3.0,6.0,-999,0.00,,,0.00,,2013-10-03 11:52:00,
2013-10-03 07:12:00,70.0,-99.9,-100.00,South,189,2.0,4.0,-999,0.00,,,0.00,,2013-10-03 12:12:00,
2013-10-03 07:22:00,70.0,-99.9,-100.00,South,189,2.0,4.0,-999,0.00,,,0.00,,2013-10-03 12:22:00,
2013-10-03 07:42:00,69.0,-99.9,-100.00,South,180,2.0,5.0,-999,0.00,,,0.00,,2013-10-03 12:42:00,
2013-10-03 07:52:00,69.0,-99.9,-100.00,South,180,2.0,5.0,-999,0.00,,,0.00,,2013-10-03 12:52:00,
2013-10-03 08:11:00,69.0,-99.9,-100.00,South,176,3.0,4.0,-999,0.00,,,0.00,,2013-10-03 13:11:00,
2013-10-03 08:22:00,69.0,-99.9,-100.00,South,176,3.0,4.0,-999,0.00,,,0.00,,2013-10-03 13:22:00,
2013-10-03 08:42:00,71.0,-99.9,-100.00,South,181,3.0,4.0,-999,0.00,,,0.00,,2013-10-03 13:42:00,
2013-10-03 08:52:00,71.0,-99.9,-100.00,South,181,3.0,4.0,-999,0.00,,,0.00,,2013-10-03 13:52:00,
2013-10-03 09:11:00,72.0,-99.9,-100.00,SSW,208,5.0,10.0,-999,0.00,,,0.00,,2013-10-03 14:11:00,
2013-10-03 09:22:00,72.0,-99.9,-100.00,SSW,208,5.0,10.0,-999,0.00,,,0.00,,2013-10-03 14:22:00,
2013-10-03 09:43:00,74.0,-99.9,-100.00,SSW,212,5.0,8.0,-999,0.00,,,0.00,,2013-10-03 14:43:00,
2013-10-03 09:52:00,74.0,-99.9,-100.00,SSW,212,5.0,8.0,-999,0.00,,,0.00,,2013-10-03 14:52:00,
2013-10-03 10:12:00,75.0,-99.9,-100.00,SW,215,4.0,5.0,-999,0.00,,,0.00,,2013-10-03 15:12:00,
2013-10-03 10:22:00,75.0,-99.9,-100.00,SW,215,4.0,5.0,-999,0.00,,,0.00,,2013-10-03 15:22:00,
2013-10-03 10:44:00,77.0,-99.9,-100.00,SW,224,5.0,10.0,-999,0.00,,,0.00,,2013-10-03 15:44:00,
2013-10-03 10:54:00,77.0,-99.9,-100.00,SW,224,5.0,10.0,-999,0.00,,,0.00,,2013-10-03 15:54:00,
2013-10-03 11:13:00,76.0,-99.9,-100.00,SW,233,5.0,7.0,-999,0.00,,,0.00,,2013-10-03 16:13:00,
2013-10-03 11:23:00,76.0,-99.9,-100.00,SW,233,5.0,7.0,-999,0.00,,,0.00,,2013-10-03 16:23:00,
2013-10-03 11:43:00,77.0,-99.9,-100.00,SW,229,5.0,7.0,-999,0.00,,,0.00,,2013-10-03 16:43:00,
2013-10-03 12:12:00,79.0,-99.9,-100.00,SSW,202,3.0,7.0,-999,0.00,,,0.00,,2013-10-03 17:12:00,
2013-10-03 12:22:00,79.0,-99.9,-100.00,SSW,202,3.0,7.0,-999,0.00,,,0.00,,2013-10-03 17:22:00,
2013-10-03 12:42:00,80.0,-99.9,-100.00,South,179,3.0,5.0,-999,0.00,,,0.00,,2013-10-03 17:42:00,
2013-10-03 12:52:00,80.0,-99.9,-100.00,South,179,3.0,5.0,-999,0.00,,,0.00,,2013-10-03 17:52:00,
2013-10-03 13:12:00,82.0,-99.9,-100.00,SSW,199,3.0,6.0,-999,0.00,,,0.00,,2013-10-03 18:12:00,
2013-10-03 13:22:00,82.0,-99.9,-100.00,SSW,199,3.0,6.0,-999,0.00,,,0.00,,2013-10-03 18:22:00,
2013-10-03 13:42:00,78.0,-99.9,-100.00,NNW,335,0.0,1.0,-999,0.00,,,0.00,,2013-10-03 18:42:00,
2013-10-03 13:52:00,78.0,-99.9,-100.00,NNW,335,0.0,1.0,-999,0.00,,,0.00,,2013-10-03 18:52:00,
2013-10-03 14:11:00,84.0,-99.9,-100.00,SSW,213,6.0,10.0,-999,0.00,,,0.00,,2013-10-03 19:11:00,
2013-10-03 14:22:00,84.0,-99.9,-100.00,SSW,213,6.0,10.0,-999,0.00,,,0.00,,2013-10-03 19:22:00,
2013-10-03 14:42:00,86.0,-99.9,-100.00,SSW,209,5.0,8.0,-999,0.00,,,0.00,,2013-10-03 19:42:00,
2013-10-03 14:53:00,86.0,-99.9,-100.00,SSW,209,5.0,8.0,-999,0.00,,,0.00,,2013-10-03 19:53:00,
2013-10-03 15:12:00,83.0,-99.9,-100.00,SW,220,8.0,14.0,-999,0.00,,,0.00,,2013-10-03 20:12:00,
2013-10-03 15:22:00,83.0,-99.9,-100.00,SW,220,8.0,14.0,-999,0.00,,,0.00,,2013-10-03 20:22:00,
2013-10-03 15:42:00,83.0,-99.9,-100.00,SSW,210,8.0,14.0,-999,0.00,,,0.00,,2013-10-03 20:42:00,
2013-10-03 15:52:00,83.0,-99.9,-100.00,SSW,210,8.0,14.0,-999,0.00,,,0.00,,2013-10-03 20:52:00,
2013-10-03 16:12:00,75.0,-99.9,-100.00,WNW,301,7.0,14.0,-999,0.00,,,0.00,,2013-10-03 21:12:00,
2013-10-03 16:22:00,75.0,-99.9,-100.00,WNW,301,7.0,14.0,-999,0.00,,,0.00,,2013-10-03 21:22:00,
2013-10-03 17:13:00,68.0,-99.9,-100.00,South,170,4.0,7.0,-999,0.27,,,0.27,,2013-10-03 22:13:00,
2013-10-03 17:23:00,68.0,-99.9,-100.00,South,170,4.0,7.0,-999,0.27,,,0.27,,2013-10-03 22:23:00,
2013-10-03 17:43:00,71.0,-99.9,-100.00,NW,317,3.0,9.0,-999,0.03,,,0.27,,2013-10-03 22:43:00,
2013-10-03 17:55:00,71.0,-99.9,-100.00,NW,317,3.0,9.0,-999,0.03,,,0.27,,2013-10-03 22:55:00,
2013-10-03 18:12:00,71.0,-99.9,-100.00,SSE,159,4.0,7.0,-999,0.00,,,0.27,,2013-10-03 23:12:00,
2013-10-03 18:22:00,71.0,-99.9,-100.00,SSE,159,4.0,7.0,-999,0.00,,,0.27,,2013-10-03 23:22:00,
2013-10-03 18:43:00,74.0,-99.9,-100.00,SSW,194,1.0,3.0,-999,0.00,,,0.27,,2013-10-03 23:43:00,
2013-10-03 18:53:00,74.0,-99.9,-100.00,SSW,194,1.0,3.0,-999,0.00,,,0.27,,2013-10-03 23:53:00,
2013-10-03 19:12:00,73.0,-99.9,-100.00,NW,319,1.0,3.0,-999,0.00,,,0.27,,2013-10-04 00:12:00,
2013-10-03 19:22:00,73.0,-99.9,-100.00,NW,319,1.0,3.0,-999,0.00,,,0.27,,2013-10-04 00:22:00,
2013-10-03 19:42:00,70.0,-99.9,-100.00,NNE,27,3.0,4.0,-999,0.00,,,0.27,,2013-10-04 00:42:00,
2013-10-03 20:12:00,70.0,-99.9,-100.00,East,81,1.0,2.0,-999,0.00,,,0.27,,2013-10-04 01:12:00,
2013-10-03 20:22:00,70.0,-99.9,-100.00,East,81,1.0,2.0,-999,0.00,,,0.27,,2013-10-04 01:22:00,
2013-10-03 20:42:00,71.0,-99.9,-100.00,SE,131,3.0,5.0,-999,0.00,,,0.27,,2013-10-04 01:42:00,
2013-10-03 20:52:00,71.0,-99.9,-100.00,SE,131,3.0,5.0,-999,0.00,,,0.27,,2013-10-04 01:52:00,
2013-10-03 21:12:00,70.0,-99.9,-100.00,SSE,161,1.0,2.0,-999,0.00,,,0.27,,2013-10-04 02:12:00,
2013-10-03 21:22:00,70.0,-99.9,-100.00,SSE,161,1.0,2.0,-999,0.00,,,0.27,,2013-10-04 02:22:00,
2013-10-03 21:43:00,69.0,-99.9,-100.00,SSE,156,1.0,2.0,-999,0.00,,,0.27,,2013-10-04 02:43:00,
2013-10-03 21:52:00,69.0,-99.9,-100.00,SSE,156,1.0,2.0,-999,0.00,,,0.27,,2013-10-04 02:52:00,
2013-10-03 22:12:00,69.0,-99.9,-100.00,SSE,157,1.0,3.0,-999,0.00,,,0.27,,2013-10-04 03:12:00,
2013-10-03 22:22:00,69.0,-99.9,-100.00,SSE,157,1.0,3.0,-999,0.00,,,0.27,,2013-10-04 03:22:00,
2013-10-03 22:44:00,69.0,-99.9,-100.00,SSE,147,1.0,2.0,-999,0.00,,,0.27,,2013-10-04 03:44:00,
2013-10-03 23:30:00,68.0,-99.9,-100.00,SSE,162,2.0,3.0,-999,0.00,,,0.27,,2013-10-04 04:30:00,
2013-10-03 23:52:00,68.0,-99.9,-100.00,South,177,1.0,1.0,-999,0.00,,,0.27,,2013-10-04 04:52:00,